sensor_id;sensor_type;location;lat;lon;timestamp;pressure;altitude;pressure_sealevel;temperature;humidity
66560;BME280;53413;49.878;8.142;2023-09-19T00:02:18;99413.88;;;14.90;100.00
66560;BME280;53413;49.878;8.142;2023-09-19T00:04:43;99411.44;;;14.87;100.00
66560;BME280;53413;49.878;8.142;2023-09-19T00:07:09;99410.72;;;14.85;100.00
66560;BME280;53413;49.878;8.142;2023-09-19T00:09:35;99407.03;;;14.87;100.00
66560;BME280;53413;49.878;8.142;2023-09-19T00:12:06;99412.81;;;14.92;100.00
66560;BME280;53413;49.878;8.142;2023-09-19T00:14:32;99413.50;;;14.96;100.00
66560;BME280;53413;49.878;8.142;2023-09-19T00:17:06;99418.97;;;14.93;100.00
66560;BME280;53413;49.878;8.142;2023-09-19T00:19:32;99415.78;;;14.88;100.00
66560;BME280;53413;49.878;8.142;2023-09-19T00:21:58;99425.69;;;14.84;100.00
66560;BME280;53413;49.878;8.142;2023-09-19T00:24:23;99423.47;;;14.78;100.00
66560;BME280;53413;49.878;8.142;2023-09-19T00:26:49;99426.47;;;14.72;100.00
66560;BME280;53413;49.878;8.142;2023-09-19T00:29:14;99424.16;;;14.67;100.00
66560;BME280;53413;49.878;8.142;2023-09-19T00:31:43;99423.56;;;14.62;100.00
66560;BME280;53413;49.878;8.142;2023-09-19T00:34:09;99423.97;;;14.56;100.00
66560;BME280;53413;49.878;8.142;2023-09-19T00:36:36;99424.06;;;14.54;100.00
66560;BME280;53413;49.878;8.142;2023-09-19T00:39:03;99432.16;;;14.51;100.00
66560;BME280;53413;49.878;8.142;2023-09-19T00:41:31;99426.03;;;14.51;100.00
66560;BME280;53413;49.878;8.142;2023-09-19T00:43:56;99428.13;;;14.45;100.00
66560;BME280;53413;49.878;8.142;2023-09-19T00:46:22;99427.50;;;14.42;100.00
66560;BME280;53413;49.878;8.142;2023-09-19T00:48:47;99435.69;;;14.37;100.00
66560;BME280;53413;49.878;8.142;2023-09-19T00:51:13;99442.00;;;14.35;100.00
66560;BME280;53413;49.878;8.142;2023-09-19T00:53:39;99447.38;;;14.33;100.00
66560;BME280;53413;49.878;8.142;2023-09-19T00:56:07;99449.13;;;14.32;100.00
66560;BME280;53413;49.878;8.142;2023-09-19T00:58:33;99447.56;;;14.30;100.00
66560;BME280;53413;49.878;8.142;2023-09-19T01:01:00;99454.69;;;14.28;100.00
66560;BME280;53413;49.878;8.142;2023-09-19T01:03:27;99465.53;;;14.23;100.00
66560;BME280;53413;49.878;8.142;2023-09-19T01:05:52;99462.13;;;14.21;100.00
66560;BME280;53413;49.878;8.142;2023-09-19T01:08:18;99469.31;;;14.19;100.00
66560;BME280;53413;49.878;8.142;2023-09-19T01:10:52;99468.56;;;14.17;100.00
66560;BME280;53413;49.878;8.142;2023-09-19T01:18:48;99490.19;;;14.08;100.00
66560;BME280;53413;49.878;8.142;2023-09-19T01:21:29;99493.22;;;14.01;100.00
66560;BME280;53413;49.878;8.142;2023-09-19T01:29:49;99503.66;;;13.89;100.00
66560;BME280;53413;49.878;8.142;2023-09-19T01:32:19;99505.25;;;13.91;100.00
66560;BME280;53413;49.878;8.142;2023-09-19T01:34:54;99503.28;;;13.95;100.00
66560;BME280;53413;49.878;8.142;2023-09-19T01:37:23;99510.88;;;13.99;100.00
66560;BME280;53413;49.878;8.142;2023-09-19T01:39:57;99520.38;;;14.02;100.00
66560;BME280;53413;49.878;8.142;2023-09-19T01:42:57;99520.38;;;14.02;100.00
66560;BME280;53413;49.878;8.142;2023-09-19T01:45:48;99518.72;;;14.01;100.00
66560;BME280;53413;49.878;8.142;2023-09-19T01:48:25;99517.84;;;14.00;100.00
66560;BME280;53413;49.878;8.142;2023-09-19T01:51:02;99521.59;;;13.96;100.00
66560;BME280;53413;49.878;8.142;2023-09-19T01:53:35;99522.47;;;13.97;100.00
66560;BME280;53413;49.878;8.142;2023-09-19T01:56:05;99530.38;;;13.97;100.00
66560;BME280;53413;49.878;8.142;2023-09-19T01:58:39;99530.44;;;13.95;100.00
66560;BME280;53413;49.878;8.142;2023-09-19T02:01:11;99539.38;;;13.93;100.00
66560;BME280;53413;49.878;8.142;2023-09-19T02:03:39;99541.25;;;13.91;100.00
66560;BME280;53413;49.878;8.142;2023-09-19T02:06:05;99541.47;;;13.88;100.00
66560;BME280;53413;49.878;8.142;2023-09-19T02:08:30;99535.25;;;13.89;100.00
66560;BME280;53413;49.878;8.142;2023-09-19T02:10:58;99538.06;;;13.85;100.00
66560;BME280;53413;49.878;8.142;2023-09-19T02:13:25;99542.56;;;13.83;100.00
66560;BME280;53413;49.878;8.142;2023-09-19T02:15:50;99536.72;;;13.78;100.00
66560;BME280;53413;49.878;8.142;2023-09-19T02:18:16;99547.34;;;13.77;100.00
66560;BME280;53413;49.878;8.142;2023-09-19T02:20:42;99550.16;;;13.74;100.00
66560;BME280;53413;49.878;8.142;2023-09-19T02:23:08;99556.38;;;13.73;100.00
66560;BME280;53413;49.878;8.142;2023-09-19T02:25:35;99558.16;;;13.72;100.00
66560;BME280;53413;49.878;8.142;2023-09-19T02:28:05;99556.56;;;13.69;100.00
66560;BME280;53413;49.878;8.142;2023-09-19T02:30:31;99563.69;;;13.67;100.00
66560;BME280;53413;49.878;8.142;2023-09-19T02:32:57;99563.09;;;13.62;100.00
66560;BME280;53413;49.878;8.142;2023-09-19T02:35:22;99557.09;;;13.60;100.00
66560;BME280;53413;49.878;8.142;2023-09-19T02:37:48;99561.50;;;13.60;100.00
66560;BME280;53413;49.878;8.142;2023-09-19T02:40:14;99563.22;;;13.61;100.00
66560;BME280;53413;49.878;8.142;2023-09-19T02:42:53;99565.75;;;13.62;100.00
66560;BME280;53413;49.878;8.142;2023-09-19T02:45:19;99566.50;;;13.64;100.00
66560;BME280;53413;49.878;8.142;2023-09-19T02:47:45;99570.94;;;13.64;100.00
66560;BME280;53413;49.878;8.142;2023-09-19T02:50:11;99569.31;;;13.61;100.00
66560;BME280;53413;49.878;8.142;2023-09-19T02:52:38;99575.59;;;13.59;100.00
66560;BME280;53413;49.878;8.142;2023-09-19T02:55:03;99574.19;;;13.53;100.00
66560;BME280;53413;49.878;8.142;2023-09-19T02:57:31;99578.19;;;13.44;100.00
66560;BME280;53413;49.878;8.142;2023-09-19T02:59:59;99569.75;;;13.37;100.00
66560;BME280;53413;49.878;8.142;2023-09-19T03:02:25;99571.81;;;13.32;100.00
66560;BME280;53413;49.878;8.142;2023-09-19T03:04:53;99575.81;;;13.23;100.00
66560;BME280;53413;49.878;8.142;2023-09-19T03:07:19;99579.63;;;13.18;100.00
66560;BME280;53413;49.878;8.142;2023-09-19T03:09:44;99579.97;;;13.12;100.00
66560;BME280;53413;49.878;8.142;2023-09-19T03:12:10;99574.22;;;13.05;100.00
66560;BME280;53413;49.878;8.142;2023-09-19T03:14:36;99582.44;;;12.99;100.00
66560;BME280;53413;49.878;8.142;2023-09-19T03:17:02;99580.22;;;12.91;100.00
66560;BME280;53413;49.878;8.142;2023-09-19T03:19:31;99587.59;;;12.84;100.00
66560;BME280;53413;49.878;8.142;2023-09-19T03:21:59;99586.16;;;12.78;100.00
66560;BME280;53413;49.878;8.142;2023-09-19T03:24:24;99591.75;;;12.72;100.00
66560;BME280;53413;49.878;8.142;2023-09-19T03:26:49;99595.47;;;12.68;100.00
66560;BME280;53413;49.878;8.142;2023-09-19T03:29:15;99600.88;;;12.65;100.00
66560;BME280;53413;49.878;8.142;2023-09-19T03:31:42;99594.13;;;12.61;100.00
66560;BME280;53413;49.878;8.142;2023-09-19T03:34:08;99594.19;;;12.59;100.00
66560;BME280;53413;49.878;8.142;2023-09-19T03:36:34;99603.75;;;12.60;100.00
66560;BME280;53413;49.878;8.142;2023-09-19T03:38:59;99598.59;;;12.59;100.00
66560;BME280;53413;49.878;8.142;2023-09-19T03:41:25;99600.53;;;12.55;100.00
66560;BME280;53413;49.878;8.142;2023-09-19T03:43:50;99606.78;;;12.53;100.00
66560;BME280;53413;49.878;8.142;2023-09-19T03:46:15;99609.50;;;12.51;100.00
66560;BME280;53413;49.878;8.142;2023-09-19T03:48:41;99601.78;;;12.48;100.00
66560;BME280;53413;49.878;8.142;2023-09-19T03:51:06;99601.94;;;12.45;100.00
66560;BME280;53413;49.878;8.142;2023-09-19T03:53:31;99605.53;;;12.44;100.00
66560;BME280;53413;49.878;8.142;2023-09-19T03:55:57;99613.47;;;12.42;100.00
66560;BME280;53413;49.878;8.142;2023-09-19T03:58:22;99606.59;;;12.40;100.00
66560;BME280;53413;49.878;8.142;2023-09-19T04:00:48;99606.59;;;12.40;100.00
66560;BME280;53413;49.878;8.142;2023-09-19T04:03:15;99611.00;;;12.39;100.00
66560;BME280;53413;49.878;8.142;2023-09-19T04:05:46;99611.78;;;12.41;100.00
66560;BME280;53413;49.878;8.142;2023-09-19T04:08:12;99602.91;;;12.44;100.00
66560;BME280;53413;49.878;8.142;2023-09-19T04:10:37;99608.91;;;12.46;100.00
66560;BME280;53413;49.878;8.142;2023-09-19T04:13:03;99613.22;;;12.47;100.00
66560;BME280;53413;49.878;8.142;2023-09-19T04:15:29;99617.41;;;12.51;100.00
66560;BME280;53413;49.878;8.142;2023-09-19T04:17:54;99618.19;;;12.53;100.00
66560;BME280;53413;49.878;8.142;2023-09-19T04:20:20;99619.78;;;12.56;100.00
66560;BME280;53413;49.878;8.142;2023-09-19T04:22:48;99623.28;;;12.56;100.00
66560;BME280;53413;49.878;8.142;2023-09-19T04:25:13;99625.81;;;12.58;100.00
66560;BME280;53413;49.878;8.142;2023-09-19T04:27:39;99624.78;;;12.60;100.00
66560;BME280;53413;49.878;8.142;2023-09-19T04:30:06;99626.41;;;12.63;100.00
66560;BME280;53413;49.878;8.142;2023-09-19T04:32:36;99626.34;;;12.65;100.00
66560;BME280;53413;49.878;8.142;2023-09-19T04:35:07;99628.03;;;12.66;100.00
66560;BME280;53413;49.878;8.142;2023-09-19T04:37:34;99630.56;;;12.67;100.00
66560;BME280;53413;49.878;8.142;2023-09-19T04:40:00;99620.94;;;12.68;100.00
66560;BME280;53413;49.878;8.142;2023-09-19T04:42:25;99621.59;;;12.71;100.00
66560;BME280;53413;49.878;8.142;2023-09-19T04:44:52;99627.53;;;12.75;100.00
66560;BME280;53413;49.878;8.142;2023-09-19T04:47:18;99620.59;;;12.74;100.00
66560;BME280;53413;49.878;8.142;2023-09-19T04:49:43;99623.31;;;12.72;100.00
66560;BME280;53413;49.878;8.142;2023-09-19T04:52:09;99623.47;;;12.69;100.00
66560;BME280;53413;49.878;8.142;2023-09-19T04:54:34;99638.41;;;12.69;100.00
66560;BME280;53413;49.878;8.142;2023-09-19T04:56:59;99628.63;;;12.71;100.00
66560;BME280;53413;49.878;8.142;2023-09-19T04:59:25;99633.97;;;12.69;100.00
66560;BME280;53413;49.878;8.142;2023-09-19T05:01:50;99652.47;;;12.68;100.00
66560;BME280;53413;49.878;8.142;2023-09-19T05:04:16;99650.69;;;12.68;100.00
66560;BME280;53413;49.878;8.142;2023-09-19T05:06:41;99656.88;;;12.67;100.00
66560;BME280;53413;49.878;8.142;2023-09-19T05:09:07;99652.47;;;12.68;100.00
66560;BME280;53413;49.878;8.142;2023-09-19T05:11:33;99656.88;;;12.67;100.00
66560;BME280;53413;49.878;8.142;2023-09-19T05:13:59;99661.28;;;12.67;100.00
66560;BME280;53413;49.878;8.142;2023-09-19T05:16:29;99660.56;;;12.63;100.00
66560;BME280;53413;49.878;8.142;2023-09-19T05:18:54;99656.28;;;12.62;100.00
66560;BME280;53413;49.878;8.142;2023-09-19T05:21:20;99658.91;;;12.62;100.00
66560;BME280;53413;49.878;8.142;2023-09-19T05:23:45;99660.56;;;12.63;100.00
66560;BME280;53413;49.878;8.142;2023-09-19T05:26:10;99657.00;;;12.64;100.00
66560;BME280;53413;49.878;8.142;2023-09-19T05:28:36;99664.84;;;12.66;100.00
66560;BME280;53413;49.878;8.142;2023-09-19T05:31:03;99667.31;;;12.69;100.00
66560;BME280;53413;49.878;8.142;2023-09-19T05:33:28;99670.44;;;12.75;100.00
66560;BME280;53413;49.878;8.142;2023-09-19T05:35:54;99670.97;;;12.82;100.00
66560;BME280;53413;49.878;8.142;2023-09-19T05:38:21;99669.72;;;12.89;100.00
66560;BME280;53413;49.878;8.142;2023-09-19T05:40:46;99671.09;;;12.97;100.00
66560;BME280;53413;49.878;8.142;2023-09-19T05:43:12;99663.56;;;13.06;100.00
66560;BME280;53413;49.878;8.142;2023-09-19T05:45:39;99665.59;;;13.17;100.00
66560;BME280;53413;49.878;8.142;2023-09-19T05:48:10;99669.19;;;13.32;100.00
66560;BME280;53413;49.878;8.142;2023-09-19T05:50:37;99674.63;;;13.45;100.00
66560;BME280;53413;49.878;8.142;2023-09-19T05:53:02;99679.03;;;13.61;100.00
66560;BME280;53413;49.878;8.142;2023-09-19T05:55:29;99688.72;;;13.76;100.00
66560;BME280;53413;49.878;8.142;2023-09-19T05:57:55;99680.84;;;13.91;100.00
66560;BME280;53413;49.878;8.142;2023-09-19T06:00:21;99685.34;;;14.05;100.00
66560;BME280;53413;49.878;8.142;2023-09-19T06:05:17;99694.28;;;14.47;100.00
66560;BME280;53413;49.878;8.142;2023-09-19T06:07:42;99692.00;;;14.71;100.00
66560;BME280;53413;49.878;8.142;2023-09-19T06:10:08;99682.84;;;14.91;100.00
66560;BME280;53413;49.878;8.142;2023-09-19T06:12:41;99683.44;;;15.11;100.00
66560;BME280;53413;49.878;8.142;2023-09-19T06:15:10;99681.44;;;15.29;100.00
66560;BME280;53413;49.878;8.142;2023-09-19T06:17:41;99683.81;;;15.47;100.00
66560;BME280;53413;49.878;8.142;2023-09-19T06:20:07;99683.91;;;15.60;100.00
66560;BME280;53413;49.878;8.142;2023-09-19T06:22:40;99693.66;;;15.72;100.00
66560;BME280;53413;49.878;8.142;2023-09-19T06:25:07;99696.19;;;15.88;100.00
66560;BME280;53413;49.878;8.142;2023-09-19T06:27:32;99698.66;;;16.04;100.00
66560;BME280;53413;49.878;8.142;2023-09-19T06:29:57;99707.28;;;16.21;100.00
66560;BME280;53413;49.878;8.142;2023-09-19T06:32:29;99708.03;;;16.36;100.00
66560;BME280;53413;49.878;8.142;2023-09-19T06:34:55;99711.66;;;16.48;100.00
66560;BME280;53413;49.878;8.142;2023-09-19T06:37:21;99712.50;;;16.61;100.00
66560;BME280;53413;49.878;8.142;2023-09-19T06:39:47;99712.09;;;16.80;100.00
66560;BME280;53413;49.878;8.142;2023-09-19T06:42:14;99719.53;;;17.01;100.00
66560;BME280;53413;49.878;8.142;2023-09-19T06:44:42;99716.00;;;17.26;100.00
66560;BME280;53413;49.878;8.142;2023-09-19T06:47:10;99719.09;;;17.57;100.00
66560;BME280;53413;49.878;8.142;2023-09-19T06:49:36;99714.94;;;17.90;100.00
66560;BME280;53413;49.878;8.142;2023-09-19T06:52:01;99727.63;;;18.22;100.00
66560;BME280;53413;49.878;8.142;2023-09-19T06:54:27;99725.31;;;18.53;100.00
66560;BME280;53413;49.878;8.142;2023-09-19T06:56:59;99732.13;;;18.80;100.00
66560;BME280;53413;49.878;8.142;2023-09-19T06:59:24;99729.16;;;19.19;100.00
66560;BME280;53413;49.878;8.142;2023-09-19T07:01:50;99735.41;;;19.63;100.00
66560;BME280;53413;49.878;8.142;2023-09-19T07:04:16;99738.53;;;20.12;100.00
66560;BME280;53413;49.878;8.142;2023-09-19T07:06:42;99742.31;;;20.52;100.00
66560;BME280;53413;49.878;8.142;2023-09-19T07:09:08;99747.66;;;20.95;100.00
66560;BME280;53413;49.878;8.142;2023-09-19T07:11:33;99740.56;;;21.46;100.00
66560;BME280;53413;49.878;8.142;2023-09-19T07:13:59;99742.09;;;21.99;97.90
66560;BME280;53413;49.878;8.142;2023-09-19T07:16:24;99746.47;;;22.39;92.08
66560;BME280;53413;49.878;8.142;2023-09-19T07:18:54;99755.88;;;22.63;87.09
66560;BME280;53413;49.878;8.142;2023-09-19T07:21:21;99761.00;;;22.94;85.87
66560;BME280;53413;49.878;8.142;2023-09-19T07:23:47;99767.41;;;23.21;83.49
66560;BME280;53413;49.878;8.142;2023-09-19T07:26:12;99767.75;;;23.46;81.09
66560;BME280;53413;49.878;8.142;2023-09-19T07:28:38;99778.28;;;23.47;77.41
66560;BME280;53413;49.878;8.142;2023-09-19T07:31:03;99773.59;;;23.59;76.92
66560;BME280;53413;49.878;8.142;2023-09-19T07:33:30;99782.03;;;23.82;75.20
66560;BME280;53413;49.878;8.142;2023-09-19T07:35:55;99784.09;;;24.35;72.51
66560;BME280;53413;49.878;8.142;2023-09-19T07:38:20;99795.78;;;24.70;69.89
66560;BME280;53413;49.878;8.142;2023-09-19T07:40:46;99796.78;;;24.95;66.69
66560;BME280;53413;49.878;8.142;2023-09-19T07:43:12;99802.19;;;25.30;64.88
66560;BME280;53413;49.878;8.142;2023-09-19T07:45:37;99806.03;;;25.54;63.30
66560;BME280;53413;49.878;8.142;2023-09-19T07:48:03;99810.72;;;25.51;61.46
66560;BME280;53413;49.878;8.142;2023-09-19T07:50:30;99814.09;;;25.62;61.18
66560;BME280;53413;49.878;8.142;2023-09-19T07:52:55;99816.59;;;25.29;61.34
66560;BME280;53413;49.878;8.142;2023-09-19T07:55:21;99821.47;;;25.60;60.19
66560;BME280;53413;49.878;8.142;2023-09-19T07:57:50;99820.25;;;25.89;58.80
66560;BME280;53413;49.878;8.142;2023-09-19T08:00:16;99822.25;;;25.95;59.25
66560;BME280;53413;49.878;8.142;2023-09-19T08:02:42;99830.44;;;26.45;58.16
66560;BME280;53413;49.878;8.142;2023-09-19T08:05:12;99823.56;;;27.00;55.01
66560;BME280;53413;49.878;8.142;2023-09-19T08:07:42;99828.84;;;27.33;54.13
66560;BME280;53413;49.878;8.142;2023-09-19T08:10:09;99825.50;;;27.31;52.36
66560;BME280;53413;49.878;8.142;2023-09-19T08:12:44;99823.28;;;28.46;49.54
66560;BME280;53413;49.878;8.142;2023-09-19T08:15:21;99828.88;;;28.44;48.48
66560;BME280;53413;49.878;8.142;2023-09-19T08:17:47;99839.75;;;28.27;48.18
66560;BME280;53413;49.878;8.142;2023-09-19T08:20:13;99831.53;;;28.91;45.91
66560;BME280;53413;49.878;8.142;2023-09-19T08:22:52;99841.81;;;30.00;43.66
66560;BME280;53413;49.878;8.142;2023-09-19T08:25:23;99834.34;;;30.89;42.25
66560;BME280;53413;49.878;8.142;2023-09-19T08:27:49;99837.50;;;29.91;42.71
66560;BME280;53413;49.878;8.142;2023-09-19T08:30:24;99835.19;;;31.18;41.99
66560;BME280;53413;49.878;8.142;2023-09-19T08:32:59;99834.25;;;32.70;39.25
66560;BME280;53413;49.878;8.142;2023-09-19T08:35:25;99833.41;;;33.16;37.76
66560;BME280;53413;49.878;8.142;2023-09-19T08:37:53;99840.25;;;34.05;36.14
66560;BME280;53413;49.878;8.142;2023-09-19T08:40:21;99835.03;;;35.74;33.66
66560;BME280;53413;49.878;8.142;2023-09-19T08:42:54;99846.84;;;36.29;32.49
66560;BME280;53413;49.878;8.142;2023-09-19T08:45:24;99845.94;;;36.89;31.80
66560;BME280;53413;49.878;8.142;2023-09-19T08:50:54;99845.31;;;37.23;30.90
66560;BME280;53413;49.878;8.142;2023-09-19T08:55:59;99841.38;;;37.95;29.78
66560;BME280;53413;49.878;8.142;2023-09-19T08:58:31;99853.41;;;37.82;28.89
66560;BME280;53413;49.878;8.142;2023-09-19T09:01:00;99853.75;;;37.86;29.78
66560;BME280;53413;49.878;8.142;2023-09-19T09:03:30;99852.31;;;37.95;29.38
66560;BME280;53413;49.878;8.142;2023-09-19T09:05:57;99861.31;;;37.67;29.05
66560;BME280;53413;49.878;8.142;2023-09-19T09:08:23;99858.81;;;37.65;29.05
66560;BME280;53413;49.878;8.142;2023-09-19T09:10:50;99854.13;;;37.25;29.15
66560;BME280;53413;49.878;8.142;2023-09-19T09:13:16;99860.19;;;37.03;29.84
66560;BME280;53413;49.878;8.142;2023-09-19T09:15:42;99850.00;;;37.10;29.06
66560;BME280;53413;49.878;8.142;2023-09-19T09:18:10;99846.75;;;37.78;28.95
66560;BME280;53413;49.878;8.142;2023-09-19T09:20:35;99844.50;;;38.16;28.84
66560;BME280;53413;49.878;8.142;2023-09-19T09:23:01;99839.03;;;38.16;29.36
66560;BME280;53413;49.878;8.142;2023-09-19T09:25:51;99843.13;;;38.30;28.14
66560;BME280;53413;49.878;8.142;2023-09-19T09:28:25;99835.69;;;38.77;28.50
66560;BME280;53413;49.878;8.142;2023-09-19T09:30:53;99841.59;;;39.03;27.45
66560;BME280;53413;49.878;8.142;2023-09-19T09:33:18;99839.84;;;39.36;27.53
66560;BME280;53413;49.878;8.142;2023-09-19T09:38:23;99842.13;;;39.05;27.26
66560;BME280;53413;49.878;8.142;2023-09-19T09:40:53;99842.91;;;38.20;27.89
66560;BME280;53413;49.878;8.142;2023-09-19T09:43:26;99833.09;;;37.49;27.95
66560;BME280;53413;49.878;8.142;2023-09-19T09:46:18;99837.59;;;37.84;27.85
66560;BME280;53413;49.878;8.142;2023-09-19T09:48:47;99829.03;;;38.73;27.14
66560;BME280;53413;49.878;8.142;2023-09-19T09:51:33;99827.34;;;39.45;26.79
66560;BME280;53413;49.878;8.142;2023-09-19T09:54:18;99830.91;;;39.23;27.04
66560;BME280;53413;49.878;8.142;2023-09-19T09:57:06;99832.91;;;40.00;26.67
66560;BME280;53413;49.878;8.142;2023-09-19T09:59:51;99833.63;;;39.23;26.60
66560;BME280;53413;49.878;8.142;2023-09-19T10:02:30;99837.47;;;35.45;29.90
66560;BME280;53413;49.878;8.142;2023-09-19T10:05:31;99844.91;;;31.76;34.11
66560;BME280;53413;49.878;8.142;2023-09-19T10:08:12;99836.13;;;29.80;36.44
66560;BME280;53413;49.878;8.142;2023-09-19T10:10:39;99829.31;;;28.71;38.76
66560;BME280;53413;49.878;8.142;2023-09-19T10:13:09;99845.06;;;27.73;39.62
66560;BME280;53413;49.878;8.142;2023-09-19T10:15:37;99841.84;;;27.13;40.46
66560;BME280;53413;49.878;8.142;2023-09-19T10:18:07;99839.16;;;26.30;41.51
66560;BME280;53413;49.878;8.142;2023-09-19T10:20:36;99835.59;;;25.35;41.33
66560;BME280;53413;49.878;8.142;2023-09-19T10:23:08;99835.34;;;24.76;43.61
66560;BME280;53413;49.878;8.142;2023-09-19T10:25:37;99846.13;;;24.30;44.45
66560;BME280;53413;49.878;8.142;2023-09-19T10:28:07;99850.22;;;24.06;45.13
66560;BME280;53413;49.878;8.142;2023-09-19T10:30:41;99841.53;;;23.94;45.75
66560;BME280;53413;49.878;8.142;2023-09-19T10:33:13;99838.53;;;24.07;45.93
66560;BME280;53413;49.878;8.142;2023-09-19T10:35:42;99837.09;;;24.31;46.72
66560;BME280;53413;49.878;8.142;2023-09-19T10:38:10;99826.31;;;24.41;45.54
66560;BME280;53413;49.878;8.142;2023-09-19T10:40:37;99833.50;;;24.58;46.82
66560;BME280;53413;49.878;8.142;2023-09-19T10:43:11;99820.78;;;24.60;45.32
66560;BME280;53413;49.878;8.142;2023-09-19T10:45:38;99824.78;;;24.56;45.63
66560;BME280;53413;49.878;8.142;2023-09-19T10:48:05;99823.69;;;24.31;45.08
66560;BME280;53413;49.878;8.142;2023-09-19T10:50:44;99831.66;;;24.05;46.54
66560;BME280;53413;49.878;8.142;2023-09-19T10:53:12;99826.47;;;23.93;44.78
66560;BME280;53413;49.878;8.142;2023-09-19T10:55:39;99824.41;;;23.87;46.06
66560;BME280;53413;49.878;8.142;2023-09-19T10:58:05;99818.41;;;23.75;46.60
66560;BME280;53413;49.878;8.142;2023-09-19T11:00:50;99811.41;;;23.64;47.29
66560;BME280;53413;49.878;8.142;2023-09-19T11:03:20;99816.94;;;23.53;47.01
66560;BME280;53413;49.878;8.142;2023-09-19T11:08:26;99814.59;;;22.83;47.24
66560;BME280;53413;49.878;8.142;2023-09-19T11:10:52;99815.03;;;22.78;47.52
66560;BME280;53413;49.878;8.142;2023-09-19T11:13:28;99799.16;;;22.57;47.64
66560;BME280;53413;49.878;8.142;2023-09-19T11:16:02;99795.66;;;22.56;48.62
66560;BME280;53413;49.878;8.142;2023-09-19T11:26:42;99784.41;;;22.72;47.34
66560;BME280;53413;49.878;8.142;2023-09-19T11:29:27;99783.72;;;22.60;47.53
66560;BME280;53413;49.878;8.142;2023-09-19T11:31:54;99785.97;;;22.45;47.35
66560;BME280;53413;49.878;8.142;2023-09-19T11:39:38;99781.16;;;22.29;46.65
66560;BME280;53413;49.878;8.142;2023-09-19T11:45:06;99762.47;;;22.20;48.05
66560;BME280;53413;49.878;8.142;2023-09-19T11:47:32;99760.78;;;22.28;46.92
66560;BME280;53413;49.878;8.142;2023-09-19T11:50:01;99767.13;;;22.27;46.71
66560;BME280;53413;49.878;8.142;2023-09-19T11:52:28;99778.66;;;22.28;47.40
66560;BME280;53413;49.878;8.142;2023-09-19T11:55:00;99781.16;;;22.29;45.65
66560;BME280;53413;49.878;8.142;2023-09-19T11:57:28;99777.78;;;22.27;48.28
66560;BME280;53413;49.878;8.142;2023-09-19T11:59:55;99780.88;;;22.33;46.98
66560;BME280;53413;49.878;8.142;2023-09-19T12:02:39;99774.41;;;22.35;48.54
66560;BME280;53413;49.878;8.142;2023-09-19T12:05:08;99773.91;;;22.41;47.19
66560;BME280;53413;49.878;8.142;2023-09-19T12:07:42;99775.28;;;22.45;47.19
66560;BME280;53413;49.878;8.142;2023-09-19T12:10:11;99782.31;;;22.47;48.13
66560;BME280;53413;49.878;8.142;2023-09-19T12:12:37;99784.00;;;22.48;48.97
66560;BME280;53413;49.878;8.142;2023-09-19T12:15:03;99773.03;;;22.31;47.34
66560;BME280;53413;49.878;8.142;2023-09-19T12:17:39;99755.03;;;22.13;46.63
66560;BME280;53413;49.878;8.142;2023-09-19T12:20:06;99761.75;;;21.98;48.46
66560;BME280;53413;49.878;8.142;2023-09-19T12:22:42;99761.75;;;21.98;48.65
66560;BME280;53413;49.878;8.142;2023-09-19T12:25:12;99763.19;;;22.02;49.42
66560;BME280;53413;49.878;8.142;2023-09-19T12:27:57;99766.13;;;22.09;48.56
66560;BME280;53413;49.878;8.142;2023-09-19T12:30:28;99761.50;;;22.11;49.10
66560;BME280;53413;49.878;8.142;2023-09-19T12:32:54;99757.28;;;22.08;48.91
66560;BME280;53413;49.878;8.142;2023-09-19T12:35:30;99752.22;;;22.15;49.53
66560;BME280;53413;49.878;8.142;2023-09-19T12:37:56;99762.22;;;22.13;48.72
66560;BME280;53413;49.878;8.142;2023-09-19T12:40:22;99741.25;;;22.08;48.38
66560;BME280;53413;49.878;8.142;2023-09-19T12:42:53;99748.59;;;22.06;48.96
66560;BME280;53413;49.878;8.142;2023-09-19T12:45:20;99747.31;;;22.10;49.87
66560;BME280;53413;49.878;8.142;2023-09-19T12:48:24;99747.47;;;22.19;48.50
66560;BME280;53413;49.878;8.142;2023-09-19T12:53:33;99724.56;;;22.06;48.56
66560;BME280;53413;49.878;8.142;2023-09-19T12:55:59;99730.03;;;22.14;48.72
66560;BME280;53413;49.878;8.142;2023-09-19T12:58:25;99728.47;;;22.22;47.97
66560;BME280;53413;49.878;8.142;2023-09-19T13:00:51;99731.97;;;22.32;48.02
66560;BME280;53413;49.878;8.142;2023-09-19T13:08:27;99720.75;;;22.58;47.50
66560;BME280;53413;49.878;8.142;2023-09-19T13:13:33;99736.31;;;22.72;45.17
66560;BME280;53413;49.878;8.142;2023-09-19T13:15:59;99740.50;;;22.85;45.63
66560;BME280;53413;49.878;8.142;2023-09-19T13:18:26;99737.28;;;22.91;46.37
66560;BME280;53413;49.878;8.142;2023-09-19T13:21:14;99738.22;;;23.00;46.84
66560;BME280;53413;49.878;8.142;2023-09-19T13:23:53;99731.16;;;23.09;46.28
66560;BME280;53413;49.878;8.142;2023-09-19T13:26:27;99735.59;;;23.18;45.72
66560;BME280;53413;49.878;8.142;2023-09-19T13:28:54;99735.16;;;23.32;46.35
66560;BME280;53413;49.878;8.142;2023-09-19T13:31:19;99734.56;;;23.39;46.14
66560;BME280;53413;49.878;8.142;2023-09-19T13:33:48;99733.19;;;23.34;45.02
66560;BME280;53413;49.878;8.142;2023-09-19T13:36:14;99727.22;;;23.41;45.77
66560;BME280;53413;49.878;8.142;2023-09-19T13:38:40;99732.47;;;23.60;45.93
66560;BME280;53413;49.878;8.142;2023-09-19T13:41:08;99718.25;;;23.60;45.36
66560;BME280;53413;49.878;8.142;2023-09-19T13:43:35;99729.53;;;23.81;45.39
66560;BME280;53413;49.878;8.142;2023-09-19T13:46:00;99727.19;;;23.96;45.40
66560;BME280;53413;49.878;8.142;2023-09-19T13:48:26;99726.03;;;24.17;45.01
66560;BME280;53413;49.878;8.142;2023-09-19T13:50:51;99723.50;;;24.34;44.63
66560;BME280;53413;49.878;8.142;2023-09-19T13:53:16;99723.81;;;24.31;44.56
66560;BME280;53413;49.878;8.142;2023-09-19T13:55:42;99726.78;;;24.27;44.63